createdAt,value
2018-05-25T00:00:29.590Z,93.30
2018-05-25T00:02:58.699Z,93.30
2018-05-25T00:05:30.369Z,93.20
2018-05-25T00:08:03.242Z,93.30
2018-05-25T00:10:36.053Z,93.40
2018-05-25T00:13:08.147Z,93.40
2018-05-25T00:15:38.134Z,93.40
2018-05-25T00:18:09.645Z,93.40
2018-05-25T00:20:39.899Z,93.30
2018-05-25T00:23:10.442Z,93.40
2018-05-25T00:25:47.003Z,93.30
2018-05-25T00:28:19.025Z,93.50
2018-05-25T00:30:48.664Z,93.40
2018-05-25T00:33:17.456Z,93.50
2018-05-25T00:35:47.811Z,93.70
2018-05-25T00:38:18.046Z,93.40
2018-05-25T00:40:47.757Z,93.50
2018-05-25T00:43:16.155Z,93.50
2018-05-25T00:45:44.533Z,93.50
2018-05-25T00:48:13.997Z,93.40
2018-05-25T00:50:50.653Z,93.50
2018-05-25T00:53:21.135Z,93.40
2018-05-25T00:55:52.286Z,93.30
2018-05-25T00:58:20.716Z,93.20
2018-05-25T01:00:50.148Z,93.00
2018-05-25T01:03:18.536Z,92.90
2018-05-25T01:05:46.943Z,92.80
2018-05-25T01:08:15.321Z,92.80
2018-05-25T01:10:43.753Z,92.60
2018-05-25T01:13:12.332Z,92.60
2018-05-25T01:15:40.754Z,92.60
2018-05-25T01:18:09.158Z,92.70
2018-05-25T01:20:37.540Z,92.80
2018-05-25T01:23:06.196Z,92.60
2018-05-25T01:25:35.093Z,92.60
2018-05-25T01:28:03.501Z,92.70
2018-05-25T01:30:32.689Z,92.70
2018-05-25T01:33:02.303Z,92.90
2018-05-25T01:35:31.218Z,92.90
2018-05-25T01:38:00.833Z,93.00
2018-05-25T01:40:29.209Z,93.00
2018-05-25T01:42:57.608Z,93.10
2018-05-25T01:45:25.993Z,93.10
2018-05-25T01:47:54.577Z,93.00
2018-05-25T01:50:23.021Z,93.00
2018-05-25T01:52:52.851Z,92.90
2018-05-25T01:55:21.617Z,92.90
2018-05-25T01:57:51.080Z,92.90
2018-05-25T02:00:19.642Z,92.90
2018-05-25T02:02:48.040Z,93.00
2018-05-25T02:05:16.443Z,93.10
2018-05-25T02:07:44.849Z,93.20
2018-05-25T02:10:13.224Z,93.20
2018-05-25T02:12:41.848Z,93.10
2018-05-25T02:15:12.623Z,93.00
2018-05-25T02:17:42.070Z,93.00
2018-05-25T02:20:11.528Z,93.10
2018-05-25T02:22:39.904Z,93.10
2018-05-25T02:25:08.394Z,93.30
2018-05-25T02:27:37.718Z,93.30
2018-05-25T02:30:06.873Z,93.30
2018-05-25T02:32:37.664Z,93.30
2018-05-25T02:35:08.305Z,93.30
2018-05-25T02:37:37.549Z,93.10
2018-05-25T02:40:06.714Z,92.60
2018-05-25T02:42:35.121Z,92.90
2018-05-25T02:45:03.881Z,92.90
2018-05-25T02:47:32.976Z,92.80
2018-05-25T02:50:03.348Z,92.80
2018-05-25T02:52:31.789Z,92.80
2018-05-25T02:55:00.192Z,92.90
2018-05-25T02:57:28.569Z,92.90
2018-05-25T02:59:56.968Z,93.10
2018-05-25T03:02:26.127Z,92.90
2018-05-25T03:04:54.796Z,92.80
2018-05-25T03:07:23.175Z,92.70
2018-05-25T03:09:51.562Z,92.60
2018-05-25T03:12:19.949Z,92.70
2018-05-25T03:14:48.341Z,92.70
2018-05-25T03:17:16.879Z,92.70
2018-05-25T03:19:45.256Z,92.60
2018-05-25T03:22:13.636Z,92.60
2018-05-25T03:24:42.165Z,92.50
2018-05-25T03:27:10.539Z,92.50
2018-05-25T03:29:39.086Z,92.70
2018-05-25T03:32:07.470Z,92.60
2018-05-25T03:34:35.842Z,92.70
2018-05-25T03:37:04.251Z,92.50
2018-05-25T03:39:32.627Z,92.90
2018-05-25T03:42:01.186Z,92.90
2018-05-25T03:44:29.564Z,92.80
2018-05-25T03:46:57.937Z,92.80
2018-05-25T03:49:26.328Z,92.60
2018-05-25T03:51:54.705Z,92.60
2018-05-25T03:54:23.281Z,92.50
2018-05-25T03:56:51.654Z,92.40
2018-05-25T03:59:38.033Z,92.30
2018-05-25T04:02:06.609Z,92.20
2018-05-25T04:04:34.981Z,92.10
2018-05-25T04:07:03.380Z,92.30
2018-05-25T04:09:31.773Z,92.60
2018-05-25T04:12:01.841Z,92.90
2018-05-25T04:14:30.984Z,93.00
2018-05-25T04:16:59.363Z,93.00
2018-05-25T04:19:27.761Z,93.00
2018-05-25T04:21:56.193Z,92.90
2018-05-25T04:24:25.023Z,93.00
2018-05-25T04:26:55.928Z,93.20
2018-05-25T04:32:07.806Z,93.20
2018-05-25T04:34:38.162Z,93.30
2018-05-25T04:37:07.977Z,93.30
2018-05-25T04:39:36.453Z,93.20
2018-05-25T04:42:04.854Z,93.00
2018-05-25T04:44:33.232Z,93.00
2018-05-25T04:47:01.649Z,93.00
2018-05-25T04:49:30.967Z,92.90
2018-05-25T04:52:00.110Z,93.00
2018-05-25T04:54:28.509Z,93.00
2018-05-25T04:56:56.888Z,93.00
2018-05-25T04:59:25.441Z,93.10
2018-05-25T05:01:53.837Z,93.00
2018-05-25T05:04:22.217Z,92.90
2018-05-25T05:06:50.614Z,92.80
2018-05-25T05:09:20.305Z,92.70
2018-05-25T05:11:50.417Z,92.60
2018-05-25T05:14:21.057Z,92.60
2018-05-25T05:16:49.464Z,92.50
2018-05-25T05:19:17.868Z,92.40
2018-05-25T05:21:46.248Z,92.90
2018-05-25T05:24:14.654Z,92.60
2018-05-25T05:26:43.033Z,92.70
2018-05-25T05:29:11.612Z,92.70
2018-05-25T05:31:39.993Z,92.50
2018-05-25T05:34:08.372Z,92.50
2018-05-25T05:36:36.779Z,92.30
2018-05-25T05:39:05.964Z,92.10
2018-05-25T05:41:34.408Z,92.00
2018-05-25T05:44:02.788Z,92.00
2018-05-25T05:46:31.169Z,92.00
2018-05-25T05:48:59.573Z,91.70
2018-05-25T05:51:27.973Z,91.30
2018-05-25T05:53:56.398Z,91.60
2018-05-25T05:56:24.785Z,91.60
2018-05-25T05:58:53.176Z,90.90
2018-05-25T06:01:21.581Z,90.90
2018-05-25T06:03:49.988Z,91.00
2018-05-25T06:06:19.345Z,90.80
2018-05-25T06:08:47.742Z,90.70
2018-05-25T06:11:16.128Z,90.60
2018-05-25T06:13:44.551Z,90.90
2018-05-25T06:16:12.961Z,90.70
2018-05-25T06:18:41.457Z,90.10
2018-05-25T06:21:09.848Z,89.50
2018-05-25T06:23:38.244Z,89.20
2018-05-25T06:26:07.425Z,90.40
2018-05-25T06:28:36.817Z,90.30
2018-05-25T06:31:05.501Z,88.60
2018-05-25T06:33:33.904Z,89.60
2018-05-25T06:36:03.053Z,89.40
2018-05-25T06:38:31.481Z,88.80
2018-05-25T06:41:00.646Z,88.00
2018-05-25T06:43:30.723Z,88.00
2018-05-25T06:45:59.240Z,88.40
2018-05-25T06:48:27.631Z,88.60
2018-05-25T06:50:56.041Z,89.10
2018-05-25T06:53:25.193Z,87.90
2018-05-25T06:55:53.773Z,87.90
2018-05-25T06:58:22.158Z,87.30
2018-05-25T07:00:50.544Z,87.20
2018-05-25T07:03:18.948Z,87.10
2018-05-25T07:05:47.333Z,87.70
2018-05-25T07:08:16.783Z,85.40
2018-05-25T07:10:45.176Z,85.20
2018-05-25T07:13:13.588Z,84.20
2018-05-25T07:15:41.994Z,83.10
2018-05-25T07:18:10.379Z,84.10
2018-05-25T07:20:38.801Z,83.90
2018-05-25T07:23:07.180Z,83.60
2018-05-25T07:25:35.559Z,81.10
2018-05-25T07:28:03.982Z,82.70
2018-05-25T07:30:32.352Z,82.20
2018-05-25T07:33:01.634Z,80.00
2018-05-25T07:35:30.780Z,79.30
2018-05-25T07:37:59.167Z,80.40
2018-05-25T07:40:27.589Z,78.50
2018-05-25T07:42:55.969Z,74.40
2018-05-25T07:45:24.377Z,77.20
2018-05-25T07:47:52.768Z,74.80
2018-05-25T07:50:21.166Z,76.30
2018-05-25T07:52:49.632Z,75.70
2018-05-25T07:55:18.017Z,76.50
2018-05-25T07:57:46.448Z,75.60
2018-05-25T08:00:15.597Z,76.70
2018-05-25T08:02:44.027Z,76.70
2018-05-25T08:05:13.188Z,74.50
2018-05-25T08:07:41.565Z,74.40
2018-05-25T08:10:10.332Z,74.50
2018-05-25T08:12:38.722Z,73.80
2018-05-25T08:15:07.095Z,74.40
2018-05-25T08:17:35.489Z,73.80
2018-05-25T08:20:03.884Z,72.60
2018-05-25T08:22:32.432Z,72.20
2018-05-25T08:25:00.836Z,72.20
2018-05-25T08:27:29.213Z,72.20
2018-05-25T08:29:57.763Z,69.60
2018-05-25T08:32:26.137Z,70.00
2018-05-25T08:34:54.566Z,69.10
2018-05-25T08:37:24.445Z,67.70
2018-05-25T08:39:52.820Z,67.60
2018-05-25T08:42:21.293Z,66.00
2018-05-25T08:44:49.750Z,66.40
2018-05-25T08:47:19.285Z,65.90
2018-05-25T08:52:20.225Z,63.60
2018-05-25T08:54:48.621Z,64.00
2018-05-25T08:57:17.001Z,63.10
2018-05-25T08:59:45.411Z,60.00
2018-05-25T09:02:14.717Z,61.50
2018-05-25T09:04:43.606Z,59.90
2018-05-25T09:07:13.001Z,56.70
2018-05-25T09:09:41.638Z,56.60
2018-05-25T09:12:10.125Z,57.10
2018-05-25T09:14:38.604Z,59.00
2018-05-25T09:17:07.737Z,58.50
2018-05-25T09:19:36.313Z,56.60
2018-05-25T09:22:04.902Z,58.10
2018-05-25T09:24:34.158Z,57.70
2018-05-25T09:27:02.565Z,55.40
2018-05-25T09:29:31.144Z,53.40
2018-05-25T09:31:59.524Z,54.10
2018-05-25T09:34:27.955Z,53.80
2018-05-25T09:36:57.123Z,49.80
2018-05-25T09:39:25.496Z,49.70
2018-05-25T09:41:54.290Z,50.80
2018-05-25T09:44:23.157Z,49.90
2018-05-25T09:46:52.149Z,48.90
2018-05-25T09:49:20.884Z,49.10
2018-05-25T09:51:50.033Z,50.00
2018-05-25T09:54:18.752Z,49.90
2018-05-25T09:57:00.489Z,50.20
2018-05-25T09:59:29.575Z,49.00
2018-05-25T10:01:58.128Z,47.20
2018-05-25T10:04:27.356Z,46.30
2018-05-25T10:06:55.886Z,46.20
2018-05-25T10:09:24.264Z,44.80
2018-05-25T10:11:52.672Z,45.50
2018-05-25T10:14:21.836Z,46.00
2018-05-25T10:16:50.217Z,46.00
2018-05-25T10:19:18.623Z,47.10
2018-05-25T10:21:47.765Z,44.60
2018-05-25T10:24:16.359Z,44.60
2018-05-25T10:26:44.733Z,43.80
2018-05-25T10:29:13.136Z,42.00
2018-05-25T10:31:48.688Z,41.70
2018-05-25T10:34:22.368Z,43.10
2018-05-25T10:36:50.750Z,43.80
2018-05-25T10:39:19.120Z,41.60
2018-05-25T10:41:47.519Z,41.70
2018-05-25T10:44:15.899Z,42.90
2018-05-25T10:46:44.313Z,41.90
2018-05-25T10:49:13.450Z,40.10
2018-05-25T10:51:41.909Z,40.00
2018-05-25T10:54:10.312Z,38.90
2018-05-25T10:56:38.690Z,39.60
2018-05-25T10:59:08.195Z,39.80
2018-05-25T11:01:36.651Z,38.90
2018-05-25T11:04:05.778Z,37.20
2018-05-25T11:06:34.190Z,37.10
2018-05-25T11:09:02.582Z,36.00
2018-05-25T11:11:31.206Z,38.20
2018-05-25T11:13:59.580Z,37.20
2018-05-25T11:16:27.963Z,36.90
2018-05-25T11:18:56.364Z,36.10
2018-05-25T11:21:24.740Z,35.70
2018-05-25T11:23:53.409Z,35.40
2018-05-25T11:26:21.787Z,35.00
2018-05-25T11:28:50.166Z,33.50
2018-05-25T11:31:18.543Z,33.80
2018-05-25T11:33:47.224Z,31.70
2018-05-25T11:36:15.853Z,32.80
2018-05-25T11:38:44.227Z,32.70
2018-05-25T11:41:12.601Z,32.70
2018-05-25T11:43:41.008Z,32.80
2018-05-25T11:46:10.140Z,33.40
2018-05-25T11:48:38.585Z,33.30
2018-05-25T11:51:07.735Z,35.30
2018-05-25T11:53:36.117Z,35.40
2018-05-25T11:56:04.517Z,34.10
2018-05-25T11:58:32.895Z,33.90
2018-05-25T12:01:01.489Z,30.90
2018-05-25T12:03:29.905Z,31.30
2018-05-25T12:05:58.300Z,31.20
2018-05-25T12:08:26.686Z,32.80
2018-05-25T12:10:55.088Z,32.90
2018-05-25T12:13:23.637Z,33.40
2018-05-25T12:15:52.030Z,33.50
2018-05-25T12:18:20.405Z,33.50
2018-05-25T12:20:48.832Z,32.80
2018-05-25T12:23:17.976Z,32.50
2018-05-25T12:25:46.561Z,32.50
2018-05-25T12:28:14.936Z,32.00
2018-05-25T12:30:43.316Z,33.00
2018-05-25T12:33:11.713Z,33.90
2018-05-25T12:35:40.891Z,34.10
2018-05-25T12:38:09.321Z,34.20
2018-05-25T12:40:38.466Z,34.20
2018-05-25T12:43:07.344Z,34.10
2018-05-25T12:45:35.754Z,34.00
2018-05-25T12:48:04.422Z,33.70
2018-05-25T12:50:33.093Z,33.70
2018-05-25T12:53:01.498Z,34.20
2018-05-25T12:55:29.877Z,35.30
2018-05-25T12:57:58.273Z,35.00
2018-05-25T13:00:26.649Z,34.70
2018-05-25T13:02:55.228Z,34.20
2018-05-25T13:05:23.600Z,34.40
2018-05-25T13:07:52.159Z,33.50
2018-05-25T13:10:20.553Z,31.80
2018-05-25T13:12:48.932Z,31.60
2018-05-25T13:15:17.700Z,31.00
2018-05-25T13:17:46.081Z,31.00
2018-05-25T13:20:14.453Z,30.40
2018-05-25T13:22:42.844Z,30.00
2018-05-25T13:25:11.221Z,29.80
2018-05-25T13:27:40.426Z,30.30
2018-05-25T13:30:08.813Z,30.20
2018-05-25T13:32:37.187Z,31.40
2018-05-25T13:35:05.589Z,32.00
2018-05-25T13:37:33.982Z,31.00
2018-05-25T13:40:03.174Z,30.10
2018-05-25T13:42:31.612Z,30.10
2018-05-25T13:44:59.984Z,29.90
2018-05-25T13:47:28.367Z,29.60
2018-05-25T13:49:56.736Z,29.50
2018-05-25T13:52:25.157Z,29.90
2018-05-25T13:54:53.524Z,30.60
2018-05-25T13:57:21.893Z,33.30
2018-05-25T13:59:50.285Z,34.60
2018-05-25T14:02:18.653Z,36.80
2018-05-25T14:04:47.418Z,36.10
2018-05-25T14:07:15.797Z,36.10
2018-05-25T14:09:44.177Z,38.10
2018-05-25T14:12:12.577Z,38.90
2018-05-25T14:14:40.968Z,39.20
2018-05-25T14:17:09.384Z,39.50
2018-05-25T14:19:37.760Z,38.50
2018-05-25T14:22:06.152Z,38.80
2018-05-25T14:24:34.548Z,39.70
2018-05-25T14:27:03.591Z,39.90
2018-05-25T14:29:32.942Z,40.90
2018-05-25T14:32:01.430Z,40.40
2018-05-25T14:34:32.768Z,40.60
2018-05-25T14:37:03.294Z,40.90
2018-05-25T14:39:34.967Z,42.10
2018-05-25T14:42:05.564Z,41.80
2018-05-25T14:44:37.240Z,41.70
2018-05-25T14:47:15.514Z,41.90
2018-05-25T14:49:45.787Z,41.80
2018-05-25T14:52:16.110Z,41.00
2018-05-25T14:54:45.509Z,40.90
2018-05-25T14:57:14.157Z,44.40
2018-05-25T14:59:43.157Z,45.60
2018-05-25T15:02:12.636Z,46.90
2018-05-25T15:04:44.370Z,48.50
2018-05-25T15:07:16.514Z,49.80
2018-05-25T15:09:48.734Z,49.90
2018-05-25T15:12:19.064Z,50.70
2018-05-25T15:14:48.435Z,50.70
2018-05-25T15:17:17.830Z,51.90
2018-05-25T15:19:52.843Z,52.50
2018-05-25T15:22:22.628Z,52.50
2018-05-25T15:24:52.285Z,52.70
2018-05-25T15:27:31.025Z,51.70
2018-05-25T15:30:04.903Z,51.90
2018-05-25T15:32:35.181Z,52.10
2018-05-25T15:35:05.529Z,52.90
2018-05-25T15:37:34.330Z,52.90
2018-05-25T15:40:03.923Z,53.30
2018-05-25T15:42:33.773Z,53.30
2018-05-25T15:45:03.572Z,54.60
2018-05-25T15:47:32.986Z,54.60
2018-05-25T15:50:02.297Z,53.10
2018-05-25T15:52:32.289Z,53.30
2018-05-25T15:55:02.013Z,53.20
2018-05-25T15:57:32.213Z,52.80
2018-05-25T16:00:02.211Z,54.30
2018-05-25T16:02:32.179Z,54.30
2018-05-25T16:05:01.614Z,54.40
2018-05-25T16:07:31.467Z,55.60
2018-05-25T16:10:01.430Z,56.30
2018-05-25T16:12:31.802Z,56.40
2018-05-25T16:15:02.416Z,56.20
2018-05-25T16:17:32.866Z,55.90
2018-05-25T16:20:23.527Z,55.70
2018-05-25T16:23:13.362Z,55.30
2018-05-25T16:26:04.368Z,55.10
2018-05-25T16:28:33.757Z,55.60
2018-05-25T16:31:02.172Z,55.70
2018-05-25T16:33:41.373Z,56.10
2018-05-25T16:36:29.635Z,56.10
2018-05-25T16:39:17.096Z,56.30
2018-05-25T16:42:08.420Z,55.80
2018-05-25T16:44:40.086Z,56.60
2018-05-25T16:47:12.992Z,56.60
2018-05-25T16:49:49.031Z,56.40
2018-05-25T16:52:18.917Z,56.60
2018-05-25T16:54:47.929Z,57.00
2018-05-25T16:57:17.591Z,57.10
2018-05-25T16:59:46.890Z,57.70
2018-05-25T17:02:16.037Z,58.20
2018-05-25T17:04:46.792Z,58.10
2018-05-25T17:07:17.043Z,58.30
2018-05-25T17:09:47.877Z,57.80
2018-05-25T17:12:18.180Z,57.40
2018-05-25T17:14:47.951Z,57.20
2018-05-25T17:17:17.647Z,57.50
2018-05-25T17:19:47.641Z,57.90
2018-05-25T17:22:43.227Z,59.00
2018-05-25T17:25:41.805Z,59.00
2018-05-25T17:31:12.630Z,60.80
2018-05-25T17:33:41.321Z,60.80
2018-05-25T17:36:24.193Z,61.60
2018-05-25T17:38:59.639Z,62.30
2018-05-25T17:41:28.812Z,63.40
2018-05-25T17:43:58.111Z,64.00
2018-05-25T17:46:27.508Z,64.70
2018-05-25T17:48:58.168Z,65.50
2018-05-25T17:51:28.279Z,65.70
2018-05-25T17:53:57.988Z,65.60
2018-05-25T17:56:27.823Z,65.80
2018-05-25T17:58:58.013Z,66.70
2018-05-25T18:01:27.708Z,66.70
2018-05-25T18:03:57.591Z,66.80
2018-05-25T18:06:27.427Z,66.30
2018-05-25T18:08:57.045Z,66.80
2018-05-25T18:11:28.059Z,66.50
2018-05-25T18:13:58.286Z,66.60
2018-05-25T18:16:27.734Z,66.50
2018-05-25T18:18:57.959Z,66.20
2018-05-25T18:21:27.598Z,66.60
2018-05-25T18:23:57.271Z,66.60
2018-05-25T18:26:25.661Z,66.80
2018-05-25T18:28:54.851Z,66.70
2018-05-25T18:31:24.520Z,66.70
2018-05-25T18:33:53.707Z,66.70
2018-05-25T18:36:22.377Z,67.00
2018-05-25T18:38:51.293Z,66.90
2018-05-25T18:41:20.286Z,67.80
2018-05-25T18:43:49.128Z,67.60
2018-05-25T18:46:18.413Z,67.80
2018-05-25T18:48:47.159Z,67.80
2018-05-25T18:51:17.454Z,68.50
2018-05-25T18:56:48.104Z,69.10
2018-05-25T18:59:16.723Z,69.60
2018-05-25T19:01:45.553Z,69.70
2018-05-25T19:04:14.762Z,71.20
2018-05-25T19:06:45.221Z,71.00
2018-05-25T19:09:13.985Z,70.90
2018-05-25T19:11:42.836Z,70.60
2018-05-25T19:14:11.875Z,71.50
2018-05-25T19:16:40.794Z,71.80
2018-05-25T19:19:10.586Z,72.50
2018-05-25T19:21:41.029Z,72.70
2018-05-25T19:24:09.921Z,72.70
2018-05-25T19:26:38.670Z,73.30
2018-05-25T19:29:07.497Z,73.30
2018-05-25T19:31:36.184Z,73.50
2018-05-25T19:34:04.590Z,74.00
2018-05-25T19:36:33.499Z,74.30
2018-05-25T19:39:03.072Z,74.60
2018-05-25T19:41:33.121Z,74.50
2018-05-25T19:44:02.307Z,75.40
2018-05-25T19:46:30.859Z,75.30
2018-05-25T19:48:59.812Z,75.40
2018-05-25T19:51:28.444Z,76.00
2018-05-25T19:53:56.913Z,76.00
2018-05-25T19:56:25.457Z,76.20
2018-05-25T19:58:53.968Z,76.70
2018-05-25T20:01:22.386Z,76.90
2018-05-25T20:03:51.227Z,76.90
2018-05-25T20:06:19.965Z,76.80
2018-05-25T20:08:49.537Z,78.00
2018-05-25T20:11:19.175Z,77.90
2018-05-25T20:13:49.105Z,78.60
2018-05-25T20:16:17.650Z,78.60
2018-05-25T20:18:46.171Z,78.40
2018-05-25T20:21:15.608Z,79.20
2018-05-25T20:23:43.989Z,79.10
2018-05-25T20:26:12.512Z,79.80
2018-05-25T20:28:41.052Z,80.50
2018-05-25T20:31:09.620Z,80.80
2018-05-25T20:33:38.205Z,81.00
2018-05-25T20:36:06.605Z,81.20
2018-05-25T20:38:35.198Z,81.50
2018-05-25T20:41:03.581Z,81.50
2018-05-25T20:43:32.124Z,81.60
2018-05-25T20:46:01.689Z,82.00
2018-05-25T20:48:30.072Z,82.00
2018-05-25T20:50:58.486Z,82.00
2018-05-25T20:53:27.105Z,82.60
2018-05-25T20:55:55.897Z,82.70
2018-05-25T20:58:24.289Z,82.50
2018-05-25T21:00:52.732Z,82.20
2018-05-25T21:03:21.173Z,82.80
2018-05-25T21:05:50.308Z,83.10
2018-05-25T21:08:19.323Z,83.10
2018-05-25T21:11:10.073Z,83.40
2018-05-25T21:14:06.316Z,83.40
2018-05-25T21:22:39.210Z,84.20
2018-05-25T21:25:15.819Z,84.30
2018-05-25T21:27:57.034Z,84.40
2018-05-25T21:30:41.865Z,84.80
2018-05-25T21:33:16.635Z,85.00
2018-05-25T21:35:58.659Z,85.20
2018-05-25T21:38:34.053Z,85.30
2018-05-25T21:41:11.390Z,85.20
2018-05-25T21:43:50.598Z,85.80
2018-05-25T21:46:27.500Z,86.30
2018-05-25T21:49:06.561Z,86.30
2018-05-25T21:51:44.248Z,87.10
2018-05-25T21:54:24.016Z,86.60
2018-05-25T21:57:01.615Z,86.60
2018-05-25T21:59:38.147Z,86.80
2018-05-25T22:02:22.491Z,86.70
2018-05-25T22:05:12.839Z,86.70
2018-05-25T22:07:54.836Z,86.60
2018-05-25T22:10:33.803Z,88.20
2018-05-25T22:13:17.544Z,87.20
2018-05-25T22:15:56.585Z,86.60
2018-05-25T22:18:30.740Z,86.60
2018-05-25T22:21:13.406Z,86.50
2018-05-25T22:23:48.577Z,86.50
2018-05-25T22:26:23.943Z,86.60
2018-05-25T22:28:59.904Z,86.60
2018-05-25T22:31:40.596Z,86.80
2018-05-25T22:34:30.853Z,86.80
2018-05-25T22:37:15.492Z,86.80
2018-05-25T22:40:00.759Z,87.10
2018-05-25T22:42:57.322Z,87.00
2018-05-25T22:45:52.697Z,87.10
2018-05-25T22:48:46.761Z,87.20
2018-05-25T22:51:40.975Z,87.30
2018-05-25T22:57:38.909Z,87.60
2018-05-25T23:00:23.054Z,88.10
2018-05-25T23:03:04.590Z,87.70
2018-05-25T23:11:55.468Z,88.40
2018-05-25T23:14:48.077Z,87.70
2018-05-25T23:17:22.454Z,87.70
2018-05-25T23:19:51.034Z,87.70
2018-05-25T23:22:19.429Z,87.70
2018-05-25T23:24:47.836Z,88.10
2018-05-25T23:27:16.246Z,88.10
2018-05-25T23:29:44.836Z,88.20
2018-05-25T23:32:13.241Z,88.30
2018-05-25T23:34:41.642Z,88.30
2018-05-25T23:37:10.398Z,88.10
2018-05-25T23:39:39.586Z,88.30
2018-05-25T23:42:07.961Z,88.30
2018-05-25T23:44:36.369Z,88.50
2018-05-25T23:47:05.537Z,88.40
2018-05-25T23:49:33.945Z,88.30
2018-05-25T23:52:02.329Z,88.50
2018-05-25T23:54:31.797Z,88.80
2018-05-25T23:57:00.178Z,88.80
2018-05-25T23:59:28.561Z,88.70
